Time;durP1;ratioP1;P1;durP2;ratioP2;P2;SDS_P1;SDS_P2;PMS_P1;PMS_P2;Temp;Humidity;BMP_temperature;BMP_pressure;BME280_temperature;BME280_humidity;BME280_pressure;Samples;Min_cycle;Max_cycle;Signal;HPM_P1;HPM_P2
2022/06/16 00:01:25;;;;;;;15.80;7.80;;;17.30;54.60;;;;;;5073096;28;46447;-62
2022/06/16 00:03:51;;;;;;;18.47;7.30;;;17.30;54.80;;;;;;5073816;28;46725;-62
2022/06/16 00:06:16;;;;;;;14.10;7.83;;;17.20;54.90;;;;;;5073354;28;46654;-62
2022/06/16 00:08:42;;;;;;;13.80;7.13;;;17.10;55.00;;;;;;5073286;28;46347;-64
2022/06/16 00:11:17;;;;;;;17.20;8.27;;;17.10;55.30;;;;;;5073384;28;46823;-62
2022/06/16 00:13:43;;;;;;;12.70;7.83;;;17.10;55.40;;;;;;5074974;28;46447;-63
2022/06/16 00:16:10;;;;;;;14.27;8.10;;;17.10;55.40;;;;;;5073287;28;46656;-63
2022/06/16 00:18:36;;;;;;;10.80;7.80;;;17.10;55.40;;;;;;5067386;28;46692;-64
2022/06/16 00:21:03;;;;;;;16.03;7.93;;;17.10;55.50;;;;;;5072052;28;45955;-62
2022/06/16 00:23:28;;;;;;;23.93;9.20;;;17.10;55.30;;;;;;5069556;28;46350;-64
2022/06/16 00:25:54;;;;;;;10.53;7.93;;;17.10;55.50;;;;;;5070792;28;46768;-65
2022/06/16 00:28:20;;;;;;;13.27;8.33;;;17.00;55.60;;;;;;5067414;28;46492;-62
2022/06/16 00:30:45;;;;;;;18.73;7.60;;;17.10;55.90;;;;;;5070545;28;46363;-64
2022/06/16 00:33:11;;;;;;;12.83;8.13;;;17.10;55.60;;;;;;5071160;28;46368;-63
2022/06/16 00:35:37;;;;;;;20.03;9.03;;;17.10;55.80;;;;;;5068972;28;46422;-63
2022/06/16 00:38:02;;;;;;;16.33;7.20;;;17.10;55.50;;;;;;5069522;28;46301;-63
2022/06/16 00:40:28;;;;;;;14.47;7.77;;;17.20;55.50;;;;;;5073822;28;46298;-62
2022/06/16 00:42:53;;;;;;;11.83;6.93;;;17.20;55.30;;;;;;5073459;28;46433;-63
2022/06/16 00:45:41;;;;;;;23.03;7.43;;;17.20;55.20;;;;;;5072536;28;46432;-62
2022/06/16 00:48:07;;;;;;;16.23;7.80;;;17.10;55.50;;;;;;5072632;28;46510;-62
2022/06/16 00:50:33;;;;;;;18.47;7.60;;;17.00;55.50;;;;;;5070369;28;46444;-64
2022/06/16 00:52:59;;;;;;;16.97;8.10;;;17.00;55.60;;;;;;5070247;28;46572;-63
2022/06/16 00:55:26;;;;;;;12.33;7.33;;;17.00;55.80;;;;;;5070369;28;46373;-62
2022/06/16 00:57:53;;;;;;;17.43;7.83;;;16.90;56.10;;;;;;5069394;28;46899;-63
2022/06/16 01:02:52;;;;;;;12.90;6.70;;;16.90;56.10;;;;;;5070891;28;46378;-63
2022/06/16 01:05:18;;;;;;;14.83;7.90;;;16.90;56.10;;;;;;5067772;28;46893;-63
2022/06/16 01:07:46;;;;;;;14.70;7.43;;;16.90;56.10;;;;;;5070013;28;46838;-63
2022/06/16 01:10:13;;;;;;;17.73;8.20;;;16.90;56.10;;;;;;5068039;28;46763;-63
2022/06/16 01:16:13;;;;;;;14.83;6.30;;;16.80;56.40;;;;;;5065232;28;46380;-62
2022/06/16 01:19:07;;;;;;;12.90;6.90;;;16.80;56.40;;;;;;5071037;28;46634;-62
2022/06/16 01:21:58;;;;;;;14.03;7.80;;;16.80;56.20;;;;;;5069915;28;46314;-64
2022/06/16 01:24:57;;;;;;;13.53;7.23;;;16.70;56.10;;;;;;5068244;28;46468;-62
2022/06/16 01:27:41;;;;;;;13.63;8.13;;;16.70;56.20;;;;;;5067947;28;46399;-64
2022/06/16 01:30:14;;;;;;;18.00;7.30;;;16.70;56.00;;;;;;5066022;28;47191;-64
2022/06/16 01:33:08;;;;;;;17.93;7.60;;;16.60;56.00;;;;;;5067336;28;46396;-62
2022/06/16 01:35:56;;;;;;;16.43;7.67;;;16.60;56.00;;;;;;5067652;28;46547;-63
2022/06/16 01:38:35;;;;;;;10.33;6.67;;;16.70;56.00;;;;;;5068018;28;46372;-62
2022/06/16 01:41:42;;;;;;;14.80;6.80;;;16.70;55.60;;;;;;5074363;28;46406;-63
2022/06/16 01:44:13;;;;;;;14.53;7.50;;;16.60;55.70;;;;;;5016330;28;46678;-63
2022/06/16 01:46:42;;;;;;;15.07;6.80;;;16.60;55.50;;;;;;5015294;28;46331;-61
2022/06/16 01:49:14;;;;;;;18.97;6.40;;;16.60;55.40;;;;;;5042054;28;46495;-63
2022/06/16 01:51:45;;;;;;;22.73;9.57;;;16.60;55.50;;;;;;5069650;28;46609;-63
2022/06/16 01:54:23;;;;;;;12.93;7.20;;;16.60;55.50;;;;;;5071849;28;46281;-63
2022/06/16 01:56:58;;;;;;;15.17;7.30;;;16.60;55.50;;;;;;5068953;28;46504;-63
2022/06/16 01:59:38;;;;;;;17.80;6.80;;;16.70;55.40;;;;;;5066473;28;46619;-63
2022/06/16 02:02:24;;;;;;;12.70;6.90;;;16.70;55.20;;;;;;5069843;28;47159;-64
2022/06/16 02:05:09;;;;;;;12.70;6.90;;;16.70;55.30;;;;;;5068290;28;46321;-63
2022/06/16 02:07:40;;;;;;;10.67;6.40;;;16.70;55.20;;;;;;5071344;28;46389;-64
2022/06/16 02:10:12;;;;;;;11.13;6.63;;;16.70;55.00;;;;;;5065547;28;46380;-62
2022/06/16 02:12:58;;;;;;;15.63;6.73;;;16.70;55.10;;;;;;5067264;28;47319;-63
2022/06/16 02:15:38;;;;;;;16.83;6.73;;;16.70;55.10;;;;;;5065987;28;46512;-62
2022/06/16 02:18:08;;;;;;;18.37;8.50;;;16.50;55.40;;;;;;5072588;28;45875;-62
2022/06/16 02:21:12;;;;;;;11.27;7.10;;;16.40;55.90;;;;;;5070792;28;45921;-62
2022/06/16 02:23:39;;;;;;;18.03;6.50;;;16.20;56.30;;;;;;5059830;28;47152;-64
2022/06/16 02:26:05;;;;;;;13.57;7.10;;;16.20;56.20;;;;;;5071106;28;46502;-62
2022/06/16 02:28:41;;;;;;;15.43;7.40;;;16.10;56.10;;;;;;5070882;28;46539;-63
2022/06/16 02:31:22;;;;;;;14.10;8.00;;;16.10;56.40;;;;;;5071267;28;46447;-63
2022/06/16 02:34:03;;;;;;;14.67;6.77;;;16.10;56.60;;;;;;5070808;28;47267;-63
2022/06/16 02:37:09;;;;;;;13.40;7.70;;;16.20;56.20;;;;;;5071710;28;46459;-63
2022/06/16 02:40:06;;;;;;;11.00;7.10;;;16.20;56.50;;;;;;5067711;28;45972;-63
2022/06/16 02:42:59;;;;;;;12.30;7.50;;;16.20;56.10;;;;;;5070834;28;46377;-63
2022/06/16 02:45:45;;;;;;;16.47;7.77;;;16.20;56.00;;;;;;5068666;28;46302;-63
2022/06/16 02:48:29;;;;;;;15.30;7.17;;;16.20;56.10;;;;;;5068771;28;46415;-62
2022/06/16 02:51:03;;;;;;;14.50;7.07;;;16.20;56.10;;;;;;5070253;28;46346;-63
2022/06/16 02:56:34;;;;;;;16.30;7.40;;;16.10;55.90;;;;;;5072063;28;46685;-63
2022/06/16 02:59:10;;;;;;;16.67;7.73;;;16.10;56.00;;;;;;5072887;28;46472;-63
2022/06/16 03:01:37;;;;;;;15.17;7.10;;;16.10;56.00;;;;;;5066974;28;46386;-62
2022/06/16 03:04:05;;;;;;;15.20;6.43;;;16.00;56.30;;;;;;5072199;28;46651;-64
2022/06/16 03:06:31;;;;;;;11.40;6.23;;;16.00;56.70;;;;;;5071737;28;47194;-63
2022/06/16 03:08:58;;;;;;;16.40;6.37;;;15.80;57.00;;;;;;5072266;28;46438;-63
2022/06/16 03:11:23;;;;;;;12.87;7.40;;;15.70;56.90;;;;;;5074247;28;46672;-63
2022/06/16 03:13:49;;;;;;;11.23;6.60;;;15.70;56.90;;;;;;5073762;28;45858;-62
2022/06/16 03:16:14;;;;;;;18.90;7.80;;;15.60;56.80;;;;;;5072154;28;46417;-62
2022/06/16 03:18:41;;;;;;;11.00;7.33;;;15.60;56.80;;;;;;5073451;28;46379;-63
2022/06/16 03:21:07;;;;;;;15.80;6.83;;;15.70;57.00;;;;;;5073773;28;45838;-64
2022/06/16 03:23:32;;;;;;;14.00;7.40;;;15.70;56.90;;;;;;5071265;28;45984;-62
2022/06/16 03:26:00;;;;;;;12.10;7.47;;;15.70;56.90;;;;;;5073183;28;46360;-62
2022/06/16 03:28:25;;;;;;;11.40;7.03;;;15.80;57.00;;;;;;5071435;28;46499;-62
2022/06/16 03:30:51;;;;;;;16.70;7.80;;;15.80;57.00;;;;;;5070905;28;46149;-62
2022/06/16 03:33:17;;;;;;;16.47;7.70;;;15.80;57.00;;;;;;5072765;28;46429;-61
2022/06/16 03:35:42;;;;;;;19.57;7.30;;;15.90;57.10;;;;;;5071704;28;46424;-62
2022/06/16 03:38:55;;;;;;;14.83;7.27;;;16.00;56.70;;;;;;5071987;28;46504;-63
2022/06/16 03:40:55;;;;;;;18.13;6.23;;;16.10;56.50;;;;;;5061003;28;46417;-63
2022/06/16 03:43:21;;;;;;;12.60;6.23;;;16.10;56.00;;;;;;5067302;28;45976;-62
2022/06/16 03:45:46;;;;;;;12.90;6.80;;;16.20;55.90;;;;;;5070356;28;47922;-64
2022/06/16 03:48:12;;;;;;;13.43;6.67;;;16.30;55.90;;;;;;5067105;28;46443;-62
2022/06/16 03:50:38;;;;;;;19.60;6.80;;;16.30;55.90;;;;;;5069708;28;46426;-65
2022/06/16 03:53:04;;;;;;;13.40;6.70;;;16.40;55.90;;;;;;5068379;28;46562;-63
2022/06/16 03:55:31;;;;;;;14.47;6.87;;;16.40;55.80;;;;;;5070930;28;46373;-64
2022/06/16 03:57:57;;;;;;;12.60;6.47;;;16.50;55.80;;;;;;5068356;28;46412;-63
2022/06/16 04:00:24;;;;;;;12.50;5.97;;;16.50;55.50;;;;;;5068993;28;46370;-63
2022/06/16 04:03:59;;;;;;;11.70;7.37;;;16.60;55.40;;;;;;5068702;28;46334;-62
2022/06/16 04:05:40;;;;;;;15.43;6.50;;;16.70;55.20;;;;;;5066244;28;46384;-63
2022/06/16 04:08:06;;;;;;;15.13;6.20;;;16.70;54.90;;;;;;5069600;28;46396;-63
2022/06/16 04:10:32;;;;;;;13.93;5.57;;;16.90;54.80;;;;;;5070157;28;46385;-63
2022/06/16 04:12:58;;;;;;;15.73;6.67;;;17.00;54.50;;;;;;5067699;28;46007;-62
2022/06/16 04:15:23;;;;;;;10.70;6.90;;;17.10;54.10;;;;;;5071811;28;47218;-62
2022/06/16 04:17:49;;;;;;;11.27;6.23;;;17.30;53.90;;;;;;5068480;28;46360;-64
2022/06/16 04:20:15;;;;;;;12.27;6.00;;;17.50;53.40;;;;;;5071797;28;46377;-64
2022/06/16 04:22:41;;;;;;;11.03;6.57;;;17.60;52.90;;;;;;5074791;28;46531;-63
2022/06/16 04:25:13;;;;;;;12.07;6.00;;;17.70;52.60;;;;;;5074900;28;46250;-64
2022/06/16 04:27:41;;;;;;;8.17;5.50;;;17.90;52.20;;;;;;5074016;28;46516;-63
2022/06/16 04:30:07;;;;;;;15.07;5.60;;;18.10;51.90;;;;;;5071209;28;46379;-62
2022/06/16 04:32:32;;;;;;;14.13;6.87;;;18.20;51.40;;;;;;5073355;28;46590;-63
2022/06/16 04:34:58;;;;;;;15.07;6.20;;;18.30;51.20;;;;;;5068425;28;46419;-62
2022/06/16 04:37:23;;;;;;;17.50;6.27;;;18.40;50.80;;;;;;5072572;28;46361;-65
2022/06/16 04:39:49;;;;;;;10.80;5.70;;;18.70;50.40;;;;;;5070540;28;46332;-62
2022/06/16 04:42:15;;;;;;;9.80;5.90;;;18.90;49.80;;;;;;5069900;28;46585;-62
2022/06/16 04:44:40;;;;;;;8.67;4.70;;;19.70;48.30;;;;;;5073358;28;46393;-62
2022/06/16 04:47:07;;;;;;;15.50;4.97;;;21.00;46.90;;;;;;5069575;28;46657;-63
2022/06/16 04:49:34;;;;;;;14.80;4.73;;;22.30;44.00;;;;;;5070727;28;46349;-61
2022/06/16 04:52:00;;;;;;;20.63;5.10;;;23.70;40.10;;;;;;5071029;28;46364;-63
2022/06/16 04:54:26;;;;;;;13.20;4.90;;;25.00;36.90;;;;;;5071144;28;46447;-62
2022/06/16 04:56:51;;;;;;;9.40;4.47;;;25.80;34.10;;;;;;5067802;28;46343;-62
2022/06/16 04:59:17;;;;;;;11.73;4.00;;;26.60;31.60;;;;;;5069760;28;46349;-62
2022/06/16 05:01:43;;;;;;;15.40;5.77;;;27.40;29.40;;;;;;5070426;28;46330;-62
2022/06/16 05:04:09;;;;;;;8.80;4.80;;;28.00;27.60;;;;;;5069202;28;46433;-61
2022/06/16 05:06:35;;;;;;;15.57;3.90;;;28.60;27.30;;;;;;5071588;28;46601;-61
2022/06/16 05:09:01;;;;;;;10.17;3.97;;;29.30;25.60;;;;;;5069512;28;46385;-62
2022/06/16 05:11:27;;;;;;;9.97;4.67;;;30.10;23.80;;;;;;5070154;28;46780;-61
2022/06/16 05:13:52;;;;;;;8.40;4.03;;;30.90;22.10;;;;;;5069726;27;46457;-64
2022/06/16 05:16:18;;;;;;;9.00;4.57;;;31.00;21.30;;;;;;5072145;28;46445;-61
2022/06/16 05:18:43;;;;;;;10.60;4.40;;;29.80;22.50;;;;;;5064091;28;46425;-62
2022/06/16 05:21:12;;;;;;;9.30;3.87;;;28.30;24.70;;;;;;5070146;28;46377;-62
2022/06/16 05:23:38;;;;;;;9.20;4.23;;;27.10;27.10;;;;;;5069550;28;46302;-62
2022/06/16 05:26:05;;;;;;;10.63;4.50;;;26.10;28.40;;;;;;5072249;28;46681;-61
2022/06/16 05:28:31;;;;;;;8.17;4.20;;;25.40;29.70;;;;;;5069829;28;46951;-61
2022/06/16 05:30:57;;;;;;;16.30;5.00;;;25.00;30.30;;;;;;5069262;28;46471;-62
2022/06/16 05:33:23;;;;;;;7.03;3.60;;;25.20;30.00;;;;;;5072165;28;46507;-61
2022/06/16 05:36:02;;;;;;;5.53;3.90;;;25.90;29.30;;;;;;5071300;28;46411;-63
2022/06/16 05:38:28;;;;;;;9.00;4.63;;;27.30;27.20;;;;;;5070536;28;46285;-64
2022/06/16 05:40:59;;;;;;;7.97;3.60;;;27.90;26.10;;;;;;5070024;28;46354;-61
2022/06/16 05:43:25;;;;;;;9.20;3.77;;;27.40;26.70;;;;;;5072589;28;47077;-62
2022/06/16 05:45:52;;;;;;;6.70;4.40;;;26.50;27.60;;;;;;5069864;28;46419;-62
2022/06/16 05:48:18;;;;;;;9.33;3.97;;;25.80;29.00;;;;;;5069338;28;46357;-61
2022/06/16 05:50:43;;;;;;;11.67;4.03;;;25.10;29.80;;;;;;5072753;28;46715;-61
2022/06/16 05:53:09;;;;;;;8.90;4.13;;;24.70;30.50;;;;;;5068421;28;47144;-63
2022/06/16 05:55:34;;;;;;;15.30;4.07;;;24.70;31.00;;;;;;5072002;28;46432;-65
2022/06/16 05:58:01;;;;;;;10.73;4.40;;;24.90;31.20;;;;;;5070794;28;46353;-62
2022/06/16 06:00:30;;;;;;;11.20;4.10;;;25.20;31.10;;;;;;5069815;28;46413;-63
2022/06/16 06:02:58;;;;;;;11.67;3.80;;;25.40;30.50;;;;;;5067796;28;46423;-62
2022/06/16 06:05:25;;;;;;;7.40;4.13;;;25.60;30.30;;;;;;5067602;28;46400;-62
2022/06/16 06:18:48;;;;;;;11.00;3.90;;;24.80;30.80;;;;;;5068785;28;46428;-64
2022/06/16 06:21:14;;;;;;;13.17;4.87;;;24.80;30.80;;;;;;5071447;28;46642;-62
2022/06/16 06:23:39;;;;;;;9.30;3.97;;;25.00;30.50;;;;;;5068954;28;46520;-62
2022/06/16 06:26:05;;;;;;;15.37;4.23;;;25.00;30.30;;;;;;5068630;28;46489;-64
2022/06/16 06:28:31;;;;;;;9.93;4.60;;;25.10;30.30;;;;;;5071886;28;46511;-62
2022/06/16 06:30:56;;;;;;;11.87;4.40;;;24.80;32.30;;;;;;5075686;28;46405;-64
2022/06/16 06:33:22;;;;;;;9.77;3.73;;;24.60;31.80;;;;;;5072298;28;46399;-62
2022/06/16 06:35:47;;;;;;;9.00;3.47;;;24.30;32.60;;;;;;5071584;28;46591;-62
2022/06/16 06:38:14;;;;;;;7.63;4.17;;;23.90;34.00;;;;;;5073768;28;46593;-63
2022/06/16 06:40:40;;;;;;;18.23;4.63;;;23.60;35.50;;;;;;5071606;28;46471;-61
2022/06/16 06:43:06;;;;;;;16.80;4.23;;;23.20;37.00;;;;;;5074295;28;46341;-62
2022/06/16 06:45:32;;;;;;;18.33;4.87;;;23.10;38.10;;;;;;5073960;28;45830;-61
2022/06/16 06:47:58;;;;;;;10.20;4.17;;;23.10;37.40;;;;;;5071334;28;46433;-62
2022/06/16 06:50:25;;;;;;;9.53;4.50;;;23.20;37.40;;;;;;5078023;28;46369;-61
2022/06/16 06:52:51;;;;;;;9.27;4.50;;;23.30;37.10;;;;;;5074080;28;46458;-59
2022/06/16 06:55:19;;;;;;;12.53;4.50;;;23.40;37.20;;;;;;5072611;28;46503;-62
2022/06/16 06:57:45;;;;;;;8.53;4.00;;;23.50;37.30;;;;;;5070834;28;46414;-60
2022/06/16 07:00:14;;;;;;;24.50;4.70;;;23.70;37.40;;;;;;5070753;28;46690;-61
2022/06/16 07:02:40;;;;;;;12.47;4.90;;;23.80;37.50;;;;;;5069826;28;48193;-60
2022/06/16 07:05:06;;;;;;;13.70;4.60;;;24.20;37.90;;;;;;5070884;28;46539;-62
2022/06/16 07:07:33;;;;;;;10.53;4.23;;;24.60;37.70;;;;;;5070649;28;46467;-63
2022/06/16 07:09:58;;;;;;;14.30;4.57;;;24.70;37.00;;;;;;5068359;28;46501;-61
2022/06/16 07:12:24;;;;;;;8.50;4.30;;;24.60;37.10;;;;;;5071357;28;47026;-62
2022/06/16 07:14:50;;;;;;;7.83;4.47;;;24.60;37.10;;;;;;5070931;28;46553;-61
2022/06/16 07:17:19;;;;;;;10.50;4.30;;;24.50;36.90;;;;;;5074338;28;46341;-61
2022/06/16 07:19:45;;;;;;;15.57;4.07;;;24.80;36.60;;;;;;5068163;28;45938;-61
2022/06/16 07:22:10;;;;;;;9.90;4.53;;;25.10;36.20;;;;;;5069788;28;46364;-61
2022/06/16 07:24:36;;;;;;;8.10;3.80;;;25.00;36.10;;;;;;5072987;28;46406;-59
2022/06/16 07:27:03;;;;;;;10.00;4.50;;;25.20;35.90;;;;;;5074209;28;46562;-60
2022/06/16 07:29:29;;;;;;;10.43;4.23;;;25.50;35.00;;;;;;5071549;28;46508;-62
2022/06/16 07:31:55;;;;;;;8.60;4.00;;;25.70;34.10;;;;;;5072301;28;47939;-60
2022/06/16 07:34:20;;;;;;;9.17;3.93;;;25.90;33.80;;;;;;5071141;28;46372;-60
2022/06/16 07:36:46;;;;;;;9.37;4.40;;;26.00;33.80;;;;;;5070306;28;46023;-63
2022/06/16 07:39:12;;;;;;;9.93;4.20;;;26.30;33.30;;;;;;5071530;28;46254;-62
2022/06/16 07:41:39;;;;;;;11.40;4.43;;;26.20;32.90;;;;;;5071596;28;46456;-61
2022/06/16 07:44:09;;;;;;;12.50;3.70;;;26.30;32.50;;;;;;5070133;28;46421;-60
2022/06/16 07:46:36;;;;;;;9.10;3.80;;;26.10;32.00;;;;;;5069440;28;46310;-62
2022/06/16 07:49:04;;;;;;;10.13;3.57;;;26.00;32.20;;;;;;5068891;28;46444;-61
2022/06/16 07:51:29;;;;;;;11.87;4.10;;;26.10;32.80;;;;;;5071618;28;46502;-62
2022/06/16 07:53:55;;;;;;;10.97;3.73;;;26.20;32.90;;;;;;5070158;28;46449;-61
2022/06/16 07:56:21;;;;;;;29.77;5.20;;;26.40;31.80;;;;;;5074507;28;46392;-60
2022/06/16 07:58:47;;;;;;;14.10;4.20;;;26.70;31.50;;;;;;5069112;28;46657;-62
2022/06/16 08:01:13;;;;;;;15.23;4.13;;;27.10;30.70;;;;;;5068746;28;46404;-59
2022/06/16 08:03:39;;;;;;;9.60;4.40;;;27.40;29.60;;;;;;5069864;28;46523;-62
2022/06/16 08:06:11;;;;;;;11.53;3.80;;;27.70;28.50;;;;;;5070026;28;46417;-61
2022/06/16 08:08:38;;;;;;;10.13;4.20;;;27.30;28.10;;;;;;5072003;28;46368;-62
2022/06/16 08:11:04;;;;;;;13.17;4.07;;;26.60;28.60;;;;;;5073477;28;47024;-62
2022/06/16 08:13:31;;;;;;;14.40;4.33;;;26.20;29.00;;;;;;5072794;28;46295;-64
2022/06/16 08:15:57;;;;;;;13.47;4.33;;;26.00;29.60;;;;;;5063295;28;46777;-61
2022/06/16 08:18:25;;;;;;;26.27;4.60;;;25.80;29.90;;;;;;5069013;28;46448;-60
2022/06/16 08:20:51;;;;;;;13.23;4.87;;;25.60;29.90;;;;;;5071927;28;46629;-61
2022/06/16 08:23:17;;;;;;;10.60;4.80;;;25.50;30.30;;;;;;5068381;28;46432;-61
2022/06/16 08:25:45;;;;;;;9.60;4.13;;;25.50;30.70;;;;;;5070945;28;46511;-61
2022/06/16 08:28:15;;;;;;;8.40;4.17;;;25.50;30.70;;;;;;5070944;28;46399;-60
2022/06/16 08:30:44;;;;;;;13.70;4.30;;;25.50;31.10;;;;;;5067726;28;46525;-62
2022/06/16 08:33:13;;;;;;;16.47;4.63;;;25.60;31.30;;;;;;5067758;28;46476;-62
2022/06/16 08:35:40;;;;;;;12.57;4.57;;;25.70;31.40;;;;;;5071043;28;46386;-62
2022/06/16 08:38:06;;;;;;;8.57;3.90;;;25.80;31.70;;;;;;5071050;28;46424;-64
2022/06/16 08:40:35;;;;;;;9.60;4.07;;;25.80;31.60;;;;;;5070446;28;46808;-63
2022/06/16 08:43:07;;;;;;;10.30;4.40;;;26.00;31.40;;;;;;5070634;28;46459;-61
2022/06/16 08:45:41;;;;;;;16.87;4.27;;;26.30;31.10;;;;;;5065542;28;46415;-61
2022/06/16 08:48:30;;;;;;;15.10;4.07;;;26.70;30.50;;;;;;5069405;28;46417;-61
2022/06/16 08:50:59;;;;;;;9.33;4.03;;;27.00;30.50;;;;;;5067013;28;46406;-60
2022/06/16 08:53:45;;;;;;;10.67;3.97;;;27.00;30.20;;;;;;5064663;28;46641;-65
2022/06/16 08:56:19;;;;;;;12.00;3.80;;;27.00;30.10;;;;;;5066950;28;46476;-62
2022/06/16 08:59:00;;;;;;;10.10;3.43;;;27.20;29.90;;;;;;5062426;28;46355;-63
2022/06/16 09:01:35;;;;;;;10.50;3.33;;;27.40;29.20;;;;;;5066581;28;47351;-60
2022/06/16 09:04:09;;;;;;;9.13;3.57;;;27.80;27.60;;;;;;5064163;28;46973;-61
2022/06/16 09:07:00;;;;;;;10.70;3.10;;;28.20;27.80;;;;;;5069883;28;46530;-62
2022/06/16 09:10:16;;;;;;;7.70;2.97;;;28.40;26.00;;;;;;5063734;28;46711;-60
2022/06/16 09:12:54;;;;;;;7.70;3.27;;;28.60;25.70;;;;;;5063041;28;47083;-63
2022/06/16 09:15:33;;;;;;;12.57;3.60;;;28.50;24.90;;;;;;5072953;28;46439;-62
2022/06/16 09:18:09;;;;;;;6.70;3.30;;;29.10;24.10;;;;;;5070378;28;46348;-61
2022/06/16 09:20:47;;;;;;;11.00;4.43;;;29.10;22.70;;;;;;5074264;28;45886;-61
2022/06/16 09:23:50;;;;;;;9.73;3.50;;;29.30;23.40;;;;;;5068938;28;47560;-61
2022/06/16 09:26:38;;;;;;;16.47;3.73;;;29.80;23.30;;;;;;5071021;28;46691;-61
2022/06/16 09:29:14;;;;;;;10.97;3.90;;;30.50;22.00;;;;;;5069932;28;46507;-61
2022/06/16 09:32:06;;;;;;;10.17;3.83;;;30.90;21.50;;;;;;5068575;28;46414;-62
2022/06/16 09:34:51;;;;;;;12.10;3.97;;;31.20;21.00;;;;;;5053403;28;46421;-62
2022/06/16 09:37:48;;;;;;;12.27;3.60;;;31.50;20.60;;;;;;5073957;28;46361;-63
2022/06/16 09:40:18;;;;;;;8.90;4.20;;;31.50;20.30;;;;;;5072623;28;46319;-63
2022/06/16 09:42:56;;;;;;;11.00;3.70;;;31.10;21.00;;;;;;5073027;28;46399;-62
2022/06/16 09:45:24;;;;;;;10.43;3.50;;;30.80;21.20;;;;;;5071134;28;48196;-63
2022/06/16 09:48:15;;;;;;;7.33;3.60;;;30.40;20.80;;;;;;5066668;28;46334;-62
2022/06/16 09:50:52;;;;;;;9.70;3.37;;;30.20;21.80;;;;;;5070096;28;46504;-63
2022/06/16 09:54:01;;;;;;;10.10;4.07;;;29.80;21.80;;;;;;5069630;28;46323;-63
2022/06/16 09:56:32;;;;;;;8.80;3.37;;;29.40;22.30;;;;;;5070617;27;46354;-61
2022/06/16 09:59:08;;;;;;;9.17;3.73;;;29.10;22.50;;;;;;5070077;28;45881;-61
2022/06/16 10:02:01;;;;;;;12.93;3.47;;;29.00;22.40;;;;;;5071043;28;46946;-61
2022/06/16 10:04:27;;;;;;;12.13;3.63;;;29.10;22.20;;;;;;5063964;28;46338;-64
2022/06/16 10:07:05;;;;;;;8.70;3.80;;;28.90;22.10;;;;;;5068274;28;46463;-61
2022/06/16 10:09:45;;;;;;;6.93;3.70;;;28.90;22.10;;;;;;5066856;28;46445;-63
2022/06/16 10:12:31;;;;;;;5.93;3.30;;;28.70;22.50;;;;;;5068950;28;46451;-62
2022/06/16 10:15:04;;;;;;;11.43;3.73;;;29.00;21.30;;;;;;5071642;28;46378;-63
2022/06/16 10:17:32;;;;;;;7.27;3.27;;;29.40;21.20;;;;;;5070754;28;46506;-64
2022/06/16 10:19:59;;;;;;;8.07;3.07;;;29.50;20.30;;;;;;5071464;28;46416;-63
2022/06/16 10:22:26;;;;;;;9.97;3.80;;;29.30;18.70;;;;;;5067468;28;46357;-64
2022/06/16 10:25:04;;;;;;;6.83;3.10;;;29.00;18.40;;;;;;5073528;28;46341;-60
2022/06/16 10:27:38;;;;;;;6.70;3.73;;;29.00;19.40;;;;;;5068607;28;47115;-64
2022/06/16 10:30:07;;;;;;;16.33;3.90;;;29.10;19.60;;;;;;5067229;28;46333;-64
2022/06/16 10:32:56;;;;;;;13.10;3.87;;;29.20;19.50;;;;;;5068704;28;46468;-62
2022/06/16 10:35:22;;;;;;;7.57;3.70;;;28.90;20.40;;;;;;5067753;28;46610;-63
2022/06/16 10:37:51;;;;;;;8.43;3.50;;;28.70;20.70;;;;;;5071184;28;46675;-63
2022/06/16 10:40:28;;;;;;;6.60;3.50;;;28.60;20.60;;;;;;5066246;28;46588;-62
2022/06/16 10:43:00;;;;;;;4.60;2.80;;;28.30;19.40;;;;;;5071720;28;46451;-64
2022/06/16 10:45:35;;;;;;;11.80;3.80;;;28.20;19.40;;;;;;5067684;28;46535;-63
2022/06/16 10:48:00;;;;;;;12.00;4.20;;;28.30;19.60;;;;;;5069126;28;46249;-62
2022/06/16 10:50:43;;;;;;;5.77;2.97;;;28.30;19.00;;;;;;5071638;28;46495;-61
2022/06/16 10:53:30;;;;;;;9.30;3.23;;;28.50;18.70;;;;;;5070488;28;45747;-62
2022/06/16 10:56:01;;;;;;;12.47;3.50;;;28.70;18.50;;;;;;5072959;28;46440;-63
2022/06/16 10:58:32;;;;;;;4.90;3.40;;;28.60;16.70;;;;;;5069330;28;46910;-64
2022/06/16 11:01:22;;;;;;;6.53;3.37;;;28.30;14.80;;;;;;5069498;28;46440;-61
2022/06/16 11:03:51;;;;;;;6.00;3.20;;;28.10;14.60;;;;;;5072063;28;46338;-61
2022/06/16 11:06:22;;;;;;;12.43;3.73;;;28.20;15.70;;;;;;5069398;28;46376;-62
2022/06/16 11:08:58;;;;;;;7.43;3.40;;;28.70;16.00;;;;;;5067801;28;47263;-64
2022/06/16 11:11:40;;;;;;;5.03;3.17;;;29.00;17.00;;;;;;5068668;28;46243;-62
2022/06/16 11:14:12;;;;;;;11.07;3.10;;;29.10;17.10;;;;;;5072355;28;46402;-62
2022/06/16 11:16:43;;;;;;;8.67;3.60;;;29.20;17.10;;;;;;5074458;27;46502;-62
2022/06/16 11:19:15;;;;;;;7.97;3.77;;;29.40;17.20;;;;;;5069242;28;46025;-63
2022/06/16 11:21:46;;;;;;;16.93;3.97;;;29.80;16.30;;;;;;5072885;28;46360;-63
2022/06/16 11:24:25;;;;;;;7.60;3.37;;;29.70;14.80;;;;;;5072266;28;46431;-65
2022/06/16 11:27:00;;;;;;;8.13;3.30;;;29.40;15.40;;;;;;5069328;28;46622;-62
2022/06/16 11:29:33;;;;;;;8.10;3.30;;;29.10;15.00;;;;;;5071259;28;48047;-61
2022/06/16 11:32:14;;;;;;;5.33;3.17;;;29.00;16.20;;;;;;5068315;28;46694;-61
2022/06/16 11:34:42;;;;;;;5.10;2.67;;;28.80;15.90;;;;;;5069877;28;46456;-63
2022/06/16 11:37:07;;;;;;;7.57;3.20;;;28.60;15.60;;;;;;5066834;28;46460;-61
2022/06/16 11:39:42;;;;;;;5.93;3.20;;;28.50;15.40;;;;;;5072566;28;48133;-64
2022/06/16 11:42:35;;;;;;;4.73;3.27;;;28.60;15.50;;;;;;5073636;28;46401;-62
2022/06/16 11:45:14;;;;;;;6.80;3.23;;;29.10;14.90;;;;;;5074564;28;46527;-64
2022/06/16 11:47:51;;;;;;;8.90;3.30;;;29.20;12.50;;;;;;5069718;28;46566;-62
2022/06/16 11:50:26;;;;;;;6.13;3.33;;;29.20;12.40;;;;;;5067821;28;46342;-62
2022/06/16 11:53:43;;;;;;;11.27;2.80;;;29.50;12.90;;;;;;5067797;28;46353;-63
2022/06/16 11:56:24;;;;;;;10.70;3.10;;;29.40;11.30;;;;;;5067265;28;46374;-63
2022/06/16 11:58:59;;;;;;;9.67;3.50;;;29.30;10.90;;;;;;5068530;28;46483;-60
2022/06/16 12:01:43;;;;;;;4.30;2.80;;;29.20;12.20;;;;;;5071518;28;46495;-61
2022/06/16 12:04:30;;;;;;;6.83;3.60;;;29.10;13.10;;;;;;5075163;28;46436;-62
2022/06/16 12:07:04;;;;;;;6.80;3.00;;;29.10;12.80;;;;;;5070525;28;46342;-63
2022/06/16 12:10:05;;;;;;;14.23;3.07;;;29.20;11.90;;;;;;5071092;28;46540;-62
2022/06/16 12:12:57;;;;;;;9.00;3.00;;;29.30;12.40;;;;;;5060924;28;46379;-61
2022/06/16 12:15:26;;;;;;;8.73;3.00;;;29.30;13.10;;;;;;5069328;28;46427;-60
2022/06/16 12:18:19;;;;;;;10.97;3.60;;;29.20;13.80;;;;;;5069483;28;46502;-61
2022/06/16 12:21:03;;;;;;;6.87;2.80;;;29.20;14.10;;;;;;5067547;28;46362;-64
2022/06/16 12:23:55;;;;;;;7.43;3.33;;;29.30;14.20;;;;;;5067441;27;46468;-63
2022/06/16 12:26:28;;;;;;;7.10;2.90;;;29.80;13.40;;;;;;5071280;28;46460;-63
2022/06/16 12:29:07;;;;;;;7.30;3.20;;;30.10;12.50;;;;;;5070275;28;46466;-62
2022/06/16 12:32:05;;;;;;;7.37;3.47;;;30.40;12.00;;;;;;5069686;28;46310;-63
2022/06/16 12:34:41;;;;;;;6.60;3.30;;;30.60;13.10;;;;;;5067650;28;46994;-61
2022/06/16 12:37:17;;;;;;;22.93;4.00;;;30.40;12.20;;;;;;5072027;28;46435;-62
2022/06/16 12:39:46;;;;;;;6.83;3.03;;;30.50;12.60;;;;;;5068849;28;46446;-62
2022/06/16 12:42:17;;;;;;;8.90;3.07;;;30.30;11.80;;;;;;5069620;28;46600;-60
2022/06/16 12:44:46;;;;;;;6.60;3.07;;;30.20;12.20;;;;;;5069174;28;46572;-65
2022/06/16 12:47:47;;;;;;;8.10;2.90;;;30.00;12.90;;;;;;5066694;28;46681;-62
2022/06/16 12:50:24;;;;;;;5.83;2.40;;;30.00;13.30;;;;;;5060082;28;46466;-63
2022/06/16 12:53:00;;;;;;;6.63;2.97;;;29.90;12.10;;;;;;5067607;28;46532;-63
2022/06/16 12:55:37;;;;;;;11.50;3.10;;;29.80;11.90;;;;;;5069564;28;47168;-62
2022/06/16 12:58:14;;;;;;;7.53;2.40;;;29.60;12.50;;;;;;5068214;28;46413;-64
2022/06/16 13:00:47;;;;;;;6.17;2.73;;;29.50;12.30;;;;;;5068470;28;46369;-62
2022/06/16 13:03:30;;;;;;;10.43;2.90;;;29.60;12.50;;;;;;5068485;28;46422;-62
2022/06/16 13:05:57;;;;;;;10.40;3.57;;;29.60;12.80;;;;;;5065600;28;46489;-63
2022/06/16 13:08:24;;;;;;;8.20;3.00;;;29.50;12.20;;;;;;5064056;28;46487;-62
2022/06/16 13:11:03;;;;;;;8.70;3.30;;;29.40;12.70;;;;;;5064528;28;46395;-65
2022/06/16 13:13:37;;;;;;;7.53;3.20;;;29.40;13.00;;;;;;5065831;28;46498;-64
2022/06/16 13:16:04;;;;;;;5.10;3.20;;;29.10;13.20;;;;;;5066618;28;46326;-67
2022/06/16 13:18:33;;;;;;;12.80;3.43;;;28.60;13.60;;;;;;5071402;28;46584;-64
2022/06/16 13:21:03;;;;;;;11.23;3.60;;;28.60;13.90;;;;;;5065852;27;46359;-63
2022/06/16 13:23:39;;;;;;;11.00;3.10;;;28.80;13.60;;;;;;5070012;28;46674;-63
2022/06/16 13:26:26;;;;;;;5.07;2.63;;;29.00;13.20;;;;;;5067331;28;46962;-63
2022/06/16 13:29:15;;;;;;;10.90;3.17;;;29.00;11.00;;;;;;5068308;28;46385;-64